createdAt,value
2022-10-01T00:01:09.700Z,1
2022-10-01T00:04:09.660Z,1
2022-10-01T00:07:09.649Z,2
2022-10-01T00:10:09.646Z,2
2022-10-01T00:13:09.664Z,2
2022-10-01T00:16:09.669Z,3
2022-10-01T00:19:09.684Z,2
2022-10-01T00:22:09.664Z,2
2022-10-01T00:25:09.682Z,0
2022-10-01T00:28:09.662Z,2
2022-10-01T00:31:09.682Z,2
2022-10-01T00:34:09.676Z,3
2022-10-01T00:37:09.683Z,1
2022-10-01T00:40:09.712Z,2
2022-10-01T00:43:09.705Z,2
2022-10-01T00:46:09.694Z,1
2022-10-01T00:49:09.706Z,3
2022-10-01T00:52:09.706Z,2
2022-10-01T00:55:09.732Z,1
2022-10-01T00:58:09.741Z,2
2022-10-01T01:01:09.745Z,2
2022-10-01T01:04:09.808Z,1
2022-10-01T01:07:09.737Z,2
2022-10-01T01:10:09.756Z,2
2022-10-01T01:13:09.757Z,3
2022-10-01T01:16:09.756Z,2
2022-10-01T01:19:09.772Z,3
2022-10-01T01:22:09.857Z,1
2022-10-01T01:25:09.772Z,0
2022-10-01T01:28:09.790Z,1
2022-10-01T01:31:09.786Z,2
2022-10-01T01:34:09.794Z,1
2022-10-01T01:37:09.806Z,3
2022-10-01T01:40:09.802Z,1
2022-10-01T01:43:09.807Z,2
2022-10-01T01:46:09.817Z,2
2022-10-01T01:49:09.805Z,2
2022-10-01T01:52:09.825Z,1
2022-10-01T01:55:09.816Z,3
2022-10-01T01:58:09.846Z,2
2022-10-01T02:01:09.837Z,1
2022-10-01T02:04:09.839Z,1
2022-10-01T02:07:09.853Z,3
2022-10-01T02:10:09.857Z,1
2022-10-01T02:13:09.849Z,2
2022-10-01T02:16:09.865Z,1
2022-10-01T02:19:09.853Z,0
2022-10-01T02:22:09.869Z,1
2022-10-01T02:25:09.882Z,2
2022-10-01T02:28:09.862Z,1
2022-10-01T02:31:09.878Z,2
2022-10-01T02:34:09.886Z,0
2022-10-01T02:37:09.893Z,1
2022-10-01T02:40:09.907Z,1
2022-10-01T02:43:09.897Z,0
2022-10-01T02:46:09.904Z,1
2022-10-01T02:49:09.906Z,0
2022-10-01T02:52:09.909Z,2
2022-10-01T02:55:09.907Z,2
2022-10-01T02:58:09.913Z,1
2022-10-01T03:01:09.924Z,1
2022-10-01T03:04:09.925Z,1
2022-10-01T03:07:09.970Z,2
2022-10-01T03:10:09.939Z,2
2022-10-01T03:13:09.941Z,1
2022-10-01T03:16:09.986Z,2
2022-10-01T03:19:09.942Z,2
2022-10-01T03:22:09.963Z,0
2022-10-01T03:25:09.952Z,1
2022-10-01T03:28:09.957Z,1
2022-10-01T03:31:09.989Z,1
2022-10-01T03:34:09.969Z,1
2022-10-01T03:37:09.981Z,3
2022-10-01T03:40:09.979Z,0
2022-10-01T03:43:09.978Z,2
2022-10-01T03:46:10.001Z,0
2022-10-01T03:49:10.009Z,0
2022-10-01T03:52:10.017Z,1
2022-10-01T03:55:10.045Z,2
2022-10-01T03:58:10.018Z,1
2022-10-01T04:01:10.018Z,0
2022-10-01T04:04:10.024Z,0
2022-10-01T04:07:10.023Z,2
2022-10-01T04:10:10.023Z,2
2022-10-01T04:13:10.033Z,1
2022-10-01T04:16:10.039Z,2
2022-10-01T04:19:10.042Z,1
2022-10-01T04:22:10.065Z,0
2022-10-01T04:25:10.057Z,0
2022-10-01T04:28:10.069Z,0
2022-10-01T04:31:10.069Z,4
2022-10-01T04:34:10.076Z,2
2022-10-01T04:37:10.076Z,2
2022-10-01T04:40:10.103Z,1
2022-10-01T04:43:10.095Z,1
2022-10-01T04:46:10.102Z,1
2022-10-01T04:49:10.125Z,1
2022-10-01T04:52:10.106Z,0
2022-10-01T04:55:10.109Z,2
2022-10-01T04:58:10.123Z,1
2022-10-01T05:01:10.136Z,2
2022-10-01T05:04:10.122Z,2
2022-10-01T05:07:10.139Z,2
2022-10-01T05:10:10.151Z,1
2022-10-01T05:13:10.152Z,2
2022-10-01T05:16:10.151Z,1
2022-10-01T05:19:10.152Z,0
2022-10-01T05:22:10.169Z,3
2022-10-01T05:25:10.158Z,1
2022-10-01T05:28:10.162Z,2
2022-10-01T05:31:10.185Z,2
2022-10-01T05:34:10.187Z,1
2022-10-01T05:37:10.178Z,1
2022-10-01T05:40:10.190Z,2
2022-10-01T05:43:10.194Z,1
2022-10-01T05:46:10.204Z,1
2022-10-01T05:49:10.200Z,0
2022-10-01T05:52:10.218Z,0
2022-10-01T05:55:10.214Z,1
2022-10-01T05:58:10.224Z,2
2022-10-01T06:01:10.233Z,1
2022-10-01T06:04:10.221Z,2
2022-10-01T06:07:10.223Z,2
2022-10-01T06:10:10.228Z,1
2022-10-01T06:13:10.242Z,1
2022-10-01T06:16:10.250Z,1
2022-10-01T06:19:10.256Z,2
2022-10-01T06:22:10.255Z,0
2022-10-01T06:25:10.267Z,1
2022-10-01T06:28:10.277Z,1
2022-10-01T06:31:10.267Z,2
2022-10-01T06:34:10.287Z,2
2022-10-01T06:37:10.284Z,2
2022-10-01T06:40:10.305Z,2
2022-10-01T06:43:10.311Z,2
2022-10-01T06:46:10.319Z,1
2022-10-01T06:49:10.301Z,1
2022-10-01T06:52:10.363Z,4
2022-10-01T06:55:10.370Z,2
2022-10-01T06:58:10.324Z,2
2022-10-01T07:01:10.314Z,1
2022-10-01T07:04:10.334Z,2
2022-10-01T07:07:10.329Z,1
2022-10-01T07:10:10.344Z,2
2022-10-01T07:13:10.361Z,1
2022-10-01T07:16:10.347Z,3
2022-10-01T07:19:10.354Z,2
2022-10-01T07:22:10.358Z,1
2022-10-01T07:25:10.359Z,2
2022-10-01T07:28:10.389Z,1
2022-10-01T07:31:10.470Z,1
2022-10-01T07:34:10.362Z,0
2022-10-01T07:37:10.375Z,2
2022-10-01T07:40:10.368Z,1
2022-10-01T07:43:10.421Z,1
2022-10-01T07:46:10.390Z,1
2022-10-01T07:49:10.394Z,1
2022-10-01T07:52:10.386Z,1
2022-10-01T07:55:10.411Z,1
2022-10-01T07:58:10.437Z,1
2022-10-01T08:01:10.409Z,2
2022-10-01T08:04:10.419Z,0
2022-10-01T08:07:10.432Z,1
2022-10-01T08:10:10.428Z,1
2022-10-01T08:13:10.445Z,1
2022-10-01T08:16:10.447Z,2
2022-10-01T08:19:10.466Z,0
2022-10-01T08:22:10.452Z,1
2022-10-01T08:25:10.483Z,1
2022-10-01T08:28:10.460Z,1
2022-10-01T08:31:10.467Z,1
2022-10-01T08:34:10.489Z,2
2022-10-01T08:37:10.488Z,2
2022-10-01T08:40:10.501Z,0
2022-10-01T08:43:10.535Z,1
2022-10-01T08:46:10.504Z,1
2022-10-01T08:49:10.508Z,2
2022-10-01T08:52:10.516Z,0
2022-10-01T08:55:10.521Z,2
2022-10-01T08:58:10.529Z,1
2022-10-01T09:01:10.535Z,0
2022-10-01T09:04:10.554Z,1
2022-10-01T09:07:10.558Z,2
2022-10-01T09:10:10.547Z,1
2022-10-01T09:13:10.571Z,0
2022-10-01T09:16:10.552Z,2
2022-10-01T09:19:10.574Z,0
2022-10-01T09:22:10.577Z,1
2022-10-01T09:25:10.588Z,0
2022-10-01T09:28:10.586Z,1
2022-10-01T09:31:10.597Z,0
2022-10-01T09:34:10.585Z,1
2022-10-01T09:37:10.602Z,1
2022-10-01T09:40:10.602Z,0
2022-10-01T09:43:10.610Z,0
2022-10-01T09:46:10.624Z,0
2022-10-01T09:49:10.611Z,0
2022-10-01T09:52:10.633Z,0
2022-10-01T09:55:10.631Z,2
2022-10-01T09:58:10.630Z,0
2022-10-01T10:01:10.652Z,0
2022-10-01T10:04:10.776Z,0
2022-10-01T10:07:10.706Z,0
2022-10-01T10:10:10.666Z,0
2022-10-01T10:13:10.806Z,0
2022-10-01T10:16:10.733Z,0
2022-10-01T10:19:10.818Z,0
2022-10-01T10:22:10.842Z,1
2022-10-01T10:25:10.858Z,0
2022-10-01T10:28:10.678Z,0
2022-10-01T10:31:10.791Z,0
2022-10-01T10:34:10.886Z,0
2022-10-01T10:37:12.223Z,0
2022-10-01T10:40:10.877Z,1
2022-10-01T10:43:10.739Z,1
2022-10-01T10:46:10.725Z,1
2022-10-01T10:49:10.721Z,0
2022-10-01T10:52:10.876Z,0
2022-10-01T10:55:10.742Z,0
2022-10-01T10:58:10.746Z,0
2022-10-01T11:01:10.797Z,0
2022-10-01T11:04:10.781Z,1
2022-10-01T11:07:10.762Z,3
2022-10-01T11:10:10.780Z,8
2022-10-01T11:13:10.779Z,9
2022-10-01T11:16:10.775Z,9
2022-10-01T11:19:10.797Z,7
2022-10-01T11:22:10.792Z,3
2022-10-01T11:25:10.797Z,1
2022-10-01T11:28:10.803Z,0
2022-10-01T11:31:10.815Z,1
2022-10-01T11:34:10.909Z,0
2022-10-01T11:37:10.869Z,0
2022-10-01T11:40:10.885Z,0
2022-10-01T11:43:10.874Z,0
2022-10-01T11:46:10.836Z,0
2022-10-01T11:49:10.860Z,0
2022-10-01T11:52:10.888Z,0
2022-10-01T11:55:10.871Z,0
2022-10-01T11:58:10.851Z,0
2022-10-01T12:01:10.859Z,0
2022-10-01T12:04:10.859Z,0
2022-10-01T12:07:10.860Z,0
2022-10-01T12:10:10.850Z,0
2022-10-01T12:13:10.872Z,0
2022-10-01T12:16:10.910Z,1
2022-10-01T12:19:10.880Z,0
2022-10-01T12:22:10.911Z,0
2022-10-01T12:25:10.921Z,0
2022-10-01T12:28:10.900Z,0
2022-10-01T12:31:10.910Z,0
2022-10-01T12:34:10.895Z,0
2022-10-01T12:37:10.935Z,0
2022-10-01T12:40:10.910Z,0
2022-10-01T12:43:10.978Z,0
2022-10-01T12:46:10.987Z,0
2022-10-01T12:49:10.940Z,1
2022-10-01T12:52:10.977Z,0
2022-10-01T12:55:10.947Z,0
2022-10-01T12:58:10.950Z,0
2022-10-01T13:01:10.971Z,0
2022-10-01T13:04:10.961Z,0
2022-10-01T13:07:10.963Z,0
2022-10-01T13:10:10.976Z,0
2022-10-01T13:13:10.972Z,0
2022-10-01T13:16:10.989Z,0
2022-10-01T13:19:10.990Z,0
2022-10-01T13:22:10.996Z,1
2022-10-01T13:25:11.006Z,0
2022-10-01T13:28:10.993Z,0
2022-10-01T13:31:11.028Z,0
2022-10-01T13:34:11.022Z,0
2022-10-01T13:37:11.025Z,0
2022-10-01T13:40:11.047Z,0
2022-10-01T13:43:11.030Z,0
2022-10-01T13:46:11.033Z,0
2022-10-01T13:49:11.052Z,0
2022-10-01T13:52:11.095Z,0
2022-10-01T13:55:11.056Z,0
2022-10-01T13:58:11.056Z,0
2022-10-01T14:01:11.054Z,0
2022-10-01T14:04:11.059Z,0
2022-10-01T14:07:11.062Z,0
2022-10-01T14:10:11.061Z,0
2022-10-01T14:13:11.068Z,0
2022-10-01T14:16:11.131Z,0
2022-10-01T14:19:11.118Z,0
2022-10-01T14:22:11.114Z,0
2022-10-01T14:25:11.101Z,0
2022-10-01T14:28:11.113Z,0
2022-10-01T14:31:11.166Z,0
2022-10-01T14:34:11.123Z,1
2022-10-01T14:37:11.115Z,0
2022-10-01T14:40:11.137Z,0
2022-10-01T14:43:11.131Z,0
2022-10-01T14:46:11.150Z,0
2022-10-01T14:49:11.148Z,0
2022-10-01T14:52:11.133Z,0
2022-10-01T14:55:11.154Z,0
2022-10-01T14:58:11.169Z,0
2022-10-01T15:01:11.177Z,0
2022-10-01T15:04:11.163Z,0
2022-10-01T15:07:11.167Z,0
2022-10-01T15:10:11.185Z,0
2022-10-01T15:13:11.217Z,0
2022-10-01T15:16:11.256Z,0
2022-10-01T15:19:11.185Z,1
2022-10-01T15:22:11.196Z,0
2022-10-01T15:25:11.195Z,0
2022-10-01T15:28:11.217Z,0
2022-10-01T15:31:11.205Z,0
2022-10-01T15:34:11.259Z,1
2022-10-01T15:37:11.279Z,0
2022-10-01T15:40:11.218Z,0
2022-10-01T15:43:11.280Z,0
2022-10-01T15:46:11.289Z,1
2022-10-01T15:49:11.235Z,0
2022-10-01T15:52:11.325Z,0
2022-10-01T15:55:11.288Z,1
2022-10-01T15:58:11.242Z,1
2022-10-01T16:01:11.252Z,1
2022-10-01T16:04:11.282Z,2
2022-10-01T16:07:11.276Z,1
2022-10-01T16:10:11.282Z,0
2022-10-01T16:13:11.271Z,0
2022-10-01T16:16:11.298Z,0
2022-10-01T16:19:11.329Z,0
2022-10-01T16:22:11.303Z,0
2022-10-01T16:25:11.286Z,0
2022-10-01T16:28:11.354Z,0
2022-10-01T16:31:11.305Z,0
2022-10-01T16:34:11.320Z,1
2022-10-01T16:37:11.340Z,0
2022-10-01T16:40:11.341Z,0
2022-10-01T16:43:11.332Z,2
2022-10-01T16:46:11.337Z,1
2022-10-01T16:49:11.339Z,1
2022-10-01T16:52:11.339Z,2
2022-10-01T16:55:11.465Z,1
2022-10-01T16:58:11.357Z,0
2022-10-01T17:01:11.367Z,1
2022-10-01T17:04:11.390Z,1
2022-10-01T17:07:11.405Z,2
2022-10-01T17:10:11.391Z,1
2022-10-01T17:13:11.395Z,0
2022-10-01T17:16:11.398Z,1
2022-10-01T17:19:11.489Z,1
2022-10-01T17:22:11.489Z,0
2022-10-01T17:25:11.414Z,2
2022-10-01T17:28:11.444Z,2
2022-10-01T17:31:11.427Z,2
2022-10-01T17:34:11.451Z,1
2022-10-01T17:37:11.493Z,2
2022-10-01T17:40:11.455Z,1
2022-10-01T17:43:11.463Z,2
2022-10-01T17:46:11.454Z,1
2022-10-01T17:49:11.491Z,3
2022-10-01T17:52:11.469Z,2
2022-10-01T17:55:11.477Z,3
2022-10-01T17:58:11.514Z,1
2022-10-01T18:01:11.607Z,1
2022-10-01T18:04:11.627Z,1
2022-10-01T18:07:11.491Z,2
2022-10-01T18:10:11.493Z,1
2022-10-01T18:13:11.675Z,2
2022-10-01T18:16:11.550Z,1
2022-10-01T18:19:11.667Z,1
2022-10-01T18:22:11.699Z,2
2022-10-01T18:25:11.691Z,2
2022-10-01T18:28:11.726Z,1
2022-10-01T18:31:11.678Z,1
2022-10-01T18:34:11.574Z,2
2022-10-01T18:37:11.710Z,3
2022-10-01T18:40:11.712Z,2
2022-10-01T18:43:11.569Z,1
2022-10-01T18:46:11.575Z,4
2022-10-01T18:49:11.589Z,2
2022-10-01T18:52:11.581Z,1
2022-10-01T18:55:11.585Z,1
2022-10-01T18:58:11.600Z,3
2022-10-01T19:01:11.634Z,2
2022-10-01T19:04:11.634Z,3
2022-10-01T19:07:11.626Z,4
2022-10-01T19:10:11.645Z,2
2022-10-01T19:13:11.611Z,4
2022-10-01T19:16:11.620Z,2
2022-10-01T19:19:11.627Z,2
2022-10-01T19:22:11.630Z,1
2022-10-01T19:25:11.685Z,2
2022-10-01T19:28:11.646Z,2
2022-10-01T19:31:11.634Z,2
2022-10-01T19:34:11.664Z,3
2022-10-01T19:37:11.701Z,1
2022-10-01T19:40:11.707Z,2
2022-10-01T19:43:11.709Z,3
2022-10-01T19:46:11.662Z,6
2022-10-01T19:49:11.719Z,4
2022-10-01T19:52:11.702Z,2
2022-10-01T19:55:11.713Z,4
2022-10-01T19:58:11.717Z,2
2022-10-01T20:01:11.719Z,2
2022-10-01T20:04:11.717Z,2
2022-10-01T20:07:11.707Z,2
2022-10-01T20:10:11.725Z,1
2022-10-01T20:13:11.788Z,3
2022-10-01T20:16:11.733Z,3
2022-10-01T20:19:11.749Z,2
2022-10-01T20:22:11.783Z,1
2022-10-01T20:25:11.751Z,1
2022-10-01T20:28:11.757Z,1
2022-10-01T20:31:11.770Z,0
2022-10-01T20:34:11.765Z,1
2022-10-01T20:37:11.776Z,1
2022-10-01T20:40:11.782Z,0
2022-10-01T20:43:11.824Z,2
2022-10-01T20:46:11.808Z,1
2022-10-01T20:49:11.814Z,1
2022-10-01T20:52:11.821Z,2
2022-10-01T20:55:11.825Z,1
2022-10-01T20:58:11.834Z,1
2022-10-01T21:01:11.821Z,0
2022-10-01T21:04:11.837Z,0
2022-10-01T21:07:11.871Z,1
2022-10-01T21:10:12.022Z,2
2022-10-01T21:13:11.846Z,1
2022-10-01T21:16:11.859Z,1
2022-10-01T21:19:11.860Z,2
2022-10-01T21:22:11.871Z,1
2022-10-01T21:25:11.888Z,0
2022-10-01T21:28:11.895Z,0
2022-10-01T21:31:11.897Z,2
2022-10-01T21:34:11.892Z,2
2022-10-01T21:37:11.941Z,1
2022-10-01T21:40:11.929Z,0
2022-10-01T21:43:11.928Z,2
2022-10-01T21:46:11.917Z,1
2022-10-01T21:49:11.960Z,0
2022-10-01T21:52:11.965Z,0
2022-10-01T21:55:11.927Z,0
2022-10-01T21:58:11.936Z,0
2022-10-01T22:01:11.967Z,0
2022-10-01T22:04:11.944Z,2
2022-10-01T22:07:11.954Z,1
2022-10-01T22:10:11.976Z,0
2022-10-01T22:13:11.986Z,0
2022-10-01T22:16:11.966Z,1
2022-10-01T22:19:11.978Z,1
2022-10-01T22:22:12.010Z,1
2022-10-01T22:25:12.008Z,1
2022-10-01T22:28:12.011Z,1
2022-10-01T22:31:12.071Z,1
2022-10-01T22:34:12.003Z,0
2022-10-01T22:37:12.003Z,1
2022-10-01T22:40:12.014Z,1
2022-10-01T22:43:12.010Z,0
2022-10-01T22:46:12.052Z,1
2022-10-01T22:49:12.031Z,1
2022-10-01T22:52:12.073Z,1
2022-10-01T22:55:12.046Z,0
2022-10-01T22:58:13.147Z,0
2022-10-01T23:01:12.062Z,1
2022-10-01T23:04:12.050Z,1
2022-10-01T23:07:12.058Z,0
2022-10-01T23:10:12.082Z,0
2022-10-01T23:13:12.069Z,1
2022-10-01T23:16:12.093Z,1
2022-10-01T23:19:12.095Z,1
2022-10-01T23:22:12.086Z,2
2022-10-01T23:25:12.100Z,0
2022-10-01T23:28:12.125Z,0
2022-10-01T23:31:12.133Z,1
2022-10-01T23:34:12.167Z,1
2022-10-01T23:37:12.142Z,1
2022-10-01T23:40:12.117Z,2
2022-10-01T23:43:12.129Z,1
2022-10-01T23:46:12.155Z,1
2022-10-01T23:49:12.143Z,1
2022-10-01T23:52:12.163Z,2
2022-10-01T23:55:12.156Z,1
2022-10-01T23:58:12.203Z,1
